createdAt,value
2022-10-28T00:01:41.491Z,101101.22
2022-10-28T00:04:28.208Z,101102.16
2022-10-28T00:07:14.935Z,101100.38
2022-10-28T00:10:01.676Z,101079.44
2022-10-28T00:12:48.487Z,101069.66
2022-10-28T00:15:35.333Z,101076.75
2022-10-28T00:18:22.076Z,101067.16
2022-10-28T00:21:08.760Z,101061.03
2022-10-28T00:23:55.712Z,100995.44
2022-10-28T00:26:45.754Z,101064.63
2022-10-28T00:29:39.492Z,101063.81
2022-10-28T00:32:26.204Z,101063.00
2022-10-28T00:35:12.913Z,101052.56
2022-10-28T00:37:59.609Z,101057.84
2022-10-28T00:40:46.483Z,101049.97
2022-10-28T00:43:33.295Z,101045.59
2022-10-28T00:46:20.124Z,101055.34
2022-10-28T00:49:10.990Z,101045.72
2022-10-28T00:51:57.813Z,101038.00
2022-10-28T00:54:44.972Z,101041.41
2022-10-28T00:57:39.879Z,101051.13
2022-10-28T01:00:27.622Z,101045.94
2022-10-28T01:03:15.609Z,100975.03
2022-10-28T01:06:04.410Z,101050.44
2022-10-28T01:08:51.121Z,101042.59
2022-10-28T01:12:00.471Z,101027.13
2022-10-28T01:14:59.251Z,101044.47
2022-10-28T01:17:58.067Z,101036.63
2022-10-28T01:20:59.996Z,101026.13
2022-10-28T01:24:14.221Z,101021.75
2022-10-28T01:27:28.588Z,101014.03
2022-10-28T01:30:41.466Z,101018.44
2022-10-28T01:33:44.809Z,101019.41
2022-10-28T01:36:39.036Z,101010.66
2022-10-28T01:39:47.411Z,101010.69
2022-10-28T01:42:49.132Z,101002.00
2022-10-28T01:45:45.601Z,101001.16
2022-10-28T01:48:39.640Z,100983.56
2022-10-28T01:51:39.032Z,100986.25
2022-10-28T01:54:28.795Z,100951.00
2022-10-28T01:57:18.036Z,100962.84
2022-10-28T02:00:07.221Z,100949.06
2022-10-28T02:03:01.404Z,100984.66
2022-10-28T02:06:06.407Z,100990.03
2022-10-28T02:09:10.983Z,100990.16
2022-10-28T02:12:09.547Z,100988.50
2022-10-28T02:15:53.525Z,100991.19
2022-10-28T02:18:51.045Z,100999.97
2022-10-28T02:21:46.444Z,100997.34
2022-10-28T02:24:41.281Z,100997.34
2022-10-28T02:27:40.780Z,100979.19
2022-10-28T02:30:35.323Z,101009.63
2022-10-28T02:33:25.851Z,100982.91
2022-10-28T02:36:40.412Z,101004.34
2022-10-28T02:39:28.010Z,100977.50
2022-10-28T02:42:19.248Z,100961.78
2022-10-28T02:45:11.705Z,100992.00
2022-10-28T02:48:03.779Z,100959.00
2022-10-28T02:50:58.680Z,100963.00
2022-10-28T02:53:51.529Z,100964.72
2022-10-28T02:56:40.990Z,100975.25
2022-10-28T02:59:33.224Z,100966.47
2022-10-28T03:02:20.212Z,100970.00
2022-10-28T03:05:07.028Z,100971.78
2022-10-28T03:07:54.371Z,100966.56
2022-10-28T03:10:41.512Z,100981.50
2022-10-28T03:13:28.213Z,100932.91
2022-10-28T03:16:14.893Z,100947.53
2022-10-28T03:19:01.701Z,100963.03
2022-10-28T03:21:48.452Z,100955.13
2022-10-28T03:24:35.157Z,100957.75
2022-10-28T03:27:21.886Z,100946.28
2022-10-28T03:30:08.584Z,100936.78
2022-10-28T03:32:55.663Z,100931.38
2022-10-28T03:35:42.606Z,100919.84
2022-10-28T03:38:29.288Z,100904.91
2022-10-28T03:41:15.990Z,100901.34
2022-10-28T03:44:02.912Z,100891.66
2022-10-28T03:46:49.619Z,100880.28
2022-10-28T03:49:36.384Z,100896.88
2022-10-28T03:52:23.132Z,100888.91
2022-10-28T03:55:09.836Z,100880.97
2022-10-28T03:57:56.707Z,100880.03
2022-10-28T04:00:43.523Z,100891.41
2022-10-28T04:03:30.211Z,100873.88
2022-10-28T04:06:16.934Z,100868.41
2022-10-28T04:09:03.692Z,100876.25
2022-10-28T04:11:50.396Z,100873.81
2022-10-28T04:14:37.186Z,100849.53
2022-10-28T04:17:23.913Z,100874.25
2022-10-28T04:20:10.619Z,100874.25
2022-10-28T04:22:57.509Z,100873.19
2022-10-28T04:25:46.001Z,100872.25
2022-10-28T04:28:32.691Z,100880.97
2022-10-28T04:31:19.431Z,100846.94
2022-10-28T04:34:06.185Z,100878.16
2022-10-28T04:36:52.885Z,100872.78
2022-10-28T04:39:39.589Z,100869.31
2022-10-28T04:42:26.351Z,100872.63
2022-10-28T04:45:13.062Z,100867.25
2022-10-28T04:47:59.772Z,100871.59
2022-10-28T04:50:47.480Z,100853.09
2022-10-28T04:53:34.236Z,100862.59
2022-10-28T04:56:20.968Z,100858.09
2022-10-28T04:59:07.799Z,100868.59
2022-10-28T05:01:54.598Z,100863.25
2022-10-28T05:04:41.373Z,100838.16
2022-10-28T05:07:28.076Z,100864.81
2022-10-28T05:10:14.872Z,100862.06
2022-10-28T05:13:02.472Z,100855.84
2022-10-28T05:15:49.199Z,100863.66
2022-10-28T05:18:36.091Z,100860.09
2022-10-28T05:21:22.894Z,100860.91
2022-10-28T05:24:09.724Z,100851.19
2022-10-28T05:26:56.481Z,100845.81
2022-10-28T05:29:43.161Z,100843.97
2022-10-28T05:32:29.986Z,100824.72
2022-10-28T05:35:16.674Z,100724.47
2022-10-28T05:38:03.773Z,100821.75
2022-10-28T05:40:50.553Z,100824.28
2022-10-28T05:43:37.272Z,100826.81
2022-10-28T05:46:23.991Z,100822.34
2022-10-28T05:49:10.749Z,100825.81
2022-10-28T05:51:57.456Z,100822.19
2022-10-28T05:54:44.221Z,100822.13
2022-10-28T05:57:30.919Z,100815.94
2022-10-28T06:00:17.673Z,100820.31
2022-10-28T06:03:04.537Z,100838.75
2022-10-28T06:05:51.244Z,100845.75
2022-10-28T06:08:37.957Z,100841.28
2022-10-28T06:11:23.206Z,100832.59
2022-10-28T06:14:09.948Z,100845.63
2022-10-28T06:16:56.675Z,100846.41
2022-10-28T06:19:43.385Z,100846.41
2022-10-28T06:22:30.896Z,100835.78
2022-10-28T06:25:17.593Z,100825.16
2022-10-28T06:28:06.957Z,100830.38
2022-10-28T06:30:56.952Z,100840.91
2022-10-28T06:33:45.554Z,100840.94
2022-10-28T06:36:32.255Z,100850.44
2022-10-28T06:39:19.109Z,100846.88
2022-10-28T06:42:05.817Z,100838.91
2022-10-28T06:44:52.585Z,100849.47
2022-10-28T06:47:41.887Z,100822.16
2022-10-28T06:50:28.983Z,100816.75
2022-10-28T06:53:16.978Z,100795.13
2022-10-28T06:55:48.784Z,100818.34
2022-10-28T06:58:15.700Z,100810.41
2022-10-28T07:00:42.503Z,100811.28
2022-10-28T07:03:09.834Z,100803.47
2022-10-28T07:05:36.846Z,100797.03
2022-10-28T07:08:03.853Z,100795.22
2022-10-28T07:10:50.654Z,100785.47
2022-10-28T07:13:37.358Z,100788.13
2022-10-28T07:16:24.412Z,100790.81
2022-10-28T07:19:11.215Z,100806.50
2022-10-28T07:21:57.963Z,100806.56
2022-10-28T07:24:44.685Z,100813.50
2022-10-28T07:27:31.505Z,100810.81
2022-10-28T07:30:18.292Z,100821.38
2022-10-28T07:33:05.011Z,100838.06
2022-10-28T07:35:51.804Z,100847.78
2022-10-28T07:38:38.520Z,100861.75
2022-10-28T07:41:27.322Z,100827.06
2022-10-28T07:44:14.057Z,100842.25
2022-10-28T07:47:01.226Z,100828.13
2022-10-28T07:49:48.051Z,100808.69
2022-10-28T07:52:34.835Z,100775.53
2022-10-28T07:55:22.409Z,100786.53
2022-10-28T07:58:09.478Z,100806.78
2022-10-28T08:00:56.267Z,100797.94
2022-10-28T08:03:43.323Z,100782.41
2022-10-28T08:06:31.593Z,100792.50
2022-10-28T08:09:18.327Z,100789.81
2022-10-28T08:12:05.042Z,100785.38
2022-10-28T08:14:51.789Z,100799.44
2022-10-28T08:17:38.502Z,100790.56
2022-10-28T08:20:25.927Z,100777.28
2022-10-28T08:23:12.631Z,100779.97
2022-10-28T08:26:06.881Z,100783.38
2022-10-28T08:28:53.777Z,100785.03
2022-10-28T08:31:40.487Z,100771.84
2022-10-28T08:34:27.529Z,100635.53
2022-10-28T08:37:14.264Z,100764.53
2022-10-28T08:40:01.010Z,100775.06
2022-10-28T08:42:52.737Z,100776.78
2022-10-28T08:45:39.697Z,100774.00
2022-10-28T08:48:34.650Z,100776.59
2022-10-28T08:51:38.010Z,100774.94
2022-10-28T08:54:31.539Z,100621.94
2022-10-28T08:57:21.319Z,100769.22
2022-10-28T09:00:11.878Z,100755.91
2022-10-28T09:03:12.113Z,100754.94
2022-10-28T09:06:04.796Z,100768.91
2022-10-28T09:08:56.467Z,100770.56
2022-10-28T09:12:09.499Z,100770.44
2022-10-28T09:15:14.744Z,100769.47
2022-10-28T09:18:15.510Z,100758.75
2022-10-28T09:21:08.232Z,100762.09
2022-10-28T09:24:05.537Z,100766.44
2022-10-28T09:27:04.711Z,100762.72
2022-10-28T09:30:01.911Z,100751.31
2022-10-28T09:33:07.891Z,100753.63
2022-10-28T09:36:01.243Z,100748.25
2022-10-28T09:38:55.418Z,100761.16
2022-10-28T09:41:47.366Z,100757.44
2022-10-28T09:44:45.642Z,100742.28
2022-10-28T09:47:47.417Z,100740.34
2022-10-28T09:50:39.021Z,100695.44
2022-10-28T09:53:40.585Z,100741.69
2022-10-28T09:56:27.784Z,100743.22
2022-10-28T09:59:18.008Z,100742.94
2022-10-28T10:02:04.959Z,100743.53
2022-10-28T10:04:51.774Z,100745.84
2022-10-28T10:07:49.310Z,100726.19
2022-10-28T10:11:04.209Z,100739.50
2022-10-28T10:14:01.120Z,100722.19
2022-10-28T10:16:58.461Z,100725.28
2022-10-28T10:19:49.683Z,100709.00
2022-10-28T10:22:57.996Z,100710.34
2022-10-28T10:25:48.538Z,100709.09
2022-10-28T10:28:36.442Z,100700.91
2022-10-28T10:31:27.547Z,100697.13
2022-10-28T10:34:16.745Z,100678.47
2022-10-28T10:37:10.807Z,100687.69
2022-10-28T10:39:58.001Z,100679.38
2022-10-28T10:42:57.399Z,100667.78
2022-10-28T10:45:51.428Z,100683.00
2022-10-28T10:48:38.200Z,100687.16
2022-10-28T10:51:46.779Z,100689.41
2022-10-28T10:54:35.398Z,100684.50
2022-10-28T10:57:35.174Z,100694.66
2022-10-28T11:00:22.101Z,100628.28
2022-10-28T11:03:10.355Z,100631.06
2022-10-28T11:06:18.489Z,100683.16
2022-10-28T11:09:06.600Z,100680.19
2022-10-28T11:11:54.965Z,100672.81
2022-10-28T11:14:47.667Z,100661.94
2022-10-28T11:17:44.679Z,100662.56
2022-10-28T11:20:46.787Z,100655.31
2022-10-28T11:23:39.531Z,100650.66
2022-10-28T11:26:30.811Z,100650.50
2022-10-28T11:29:24.387Z,100655.66
2022-10-28T11:32:29.729Z,100651.13
2022-10-28T11:35:40.901Z,100647.41
2022-10-28T11:38:27.596Z,100657.06
2022-10-28T11:41:18.721Z,100652.59
2022-10-28T11:44:17.418Z,100624.31
2022-10-28T11:47:07.098Z,100658.75
2022-10-28T11:50:31.855Z,100664.09
2022-10-28T11:53:42.615Z,100657.06
2022-10-28T11:56:44.710Z,100651.66
2022-10-28T11:59:43.542Z,100651.56
2022-10-28T12:02:55.193Z,100658.59
2022-10-28T12:05:53.017Z,100656.81
2022-10-28T12:08:55.022Z,100659.38
2022-10-28T12:11:59.690Z,100653.19
2022-10-28T12:14:46.348Z,100648.66
2022-10-28T12:17:49.633Z,100653.09
2022-10-28T12:21:05.406Z,100626.84
2022-10-28T12:23:55.103Z,100643.25
2022-10-28T12:26:55.914Z,100644.97
2022-10-28T12:29:47.577Z,100643.16
2022-10-28T12:32:42.271Z,100645.84
2022-10-28T12:35:41.516Z,100656.47
2022-10-28T12:39:13.077Z,100640.59
2022-10-28T12:42:23.820Z,100629.94
2022-10-28T12:45:13.991Z,100628.16
2022-10-28T12:48:13.150Z,100640.59
2022-10-28T12:51:09.495Z,100640.69
2022-10-28T12:54:02.187Z,100642.63
2022-10-28T12:56:57.256Z,100649.78
2022-10-28T12:59:53.322Z,100646.25
2022-10-28T13:02:49.944Z,100631.31
2022-10-28T13:05:51.402Z,100642.81
2022-10-28T13:09:12.066Z,100644.63
2022-10-28T13:12:16.126Z,100642.81
2022-10-28T13:15:35.442Z,100636.66
2022-10-28T13:18:49.882Z,100634.03
2022-10-28T13:21:52.036Z,100615.41
2022-10-28T13:24:46.847Z,100639.53
2022-10-28T13:30:34.387Z,100634.47
2022-10-28T13:33:26.006Z,100635.41
2022-10-28T13:36:15.432Z,100615.59
2022-10-28T13:39:02.941Z,100635.56
2022-10-28T13:41:52.437Z,100630.50
2022-10-28T13:44:44.968Z,100631.53
2022-10-28T13:47:52.999Z,100623.81
2022-10-28T13:50:52.994Z,100626.63
2022-10-28T13:53:48.624Z,100624.16
2022-10-28T13:56:47.358Z,100623.44
2022-10-28T13:59:58.518Z,100617.41
2022-10-28T14:03:08.481Z,100621.94
2022-10-28T14:05:58.170Z,100616.78
2022-10-28T14:08:52.070Z,100602.28
2022-10-28T14:11:46.518Z,100608.97
2022-10-28T14:14:36.919Z,100610.88
2022-10-28T14:17:24.290Z,100588.63
2022-10-28T14:20:12.817Z,100607.59
2022-10-28T14:22:59.546Z,100596.19
2022-10-28T14:26:01.337Z,100602.59
2022-10-28T14:28:47.991Z,100606.22
2022-10-28T14:31:34.701Z,100607.28
2022-10-28T14:34:21.447Z,100611.06
2022-10-28T14:37:37.725Z,100617.38
2022-10-28T14:40:44.351Z,100613.16
2022-10-28T14:43:39.799Z,100611.63
2022-10-28T14:46:29.564Z,100609.38
2022-10-28T14:49:18.611Z,100607.88
2022-10-28T14:52:05.778Z,100601.94
2022-10-28T14:54:56.986Z,100605.59
2022-10-28T14:57:52.552Z,100607.53
2022-10-28T15:00:44.467Z,100607.63
2022-10-28T15:03:32.176Z,100606.00
2022-10-28T15:06:39.537Z,100604.41
2022-10-28T15:09:35.554Z,100615.09
2022-10-28T15:12:27.541Z,100612.44
2022-10-28T15:15:16.511Z,100615.25
2022-10-28T15:18:03.322Z,100611.81
2022-10-28T15:20:55.443Z,100608.38
2022-10-28T15:23:44.442Z,100594.31
2022-10-28T15:26:37.014Z,100593.47
2022-10-28T15:29:23.810Z,100592.66
2022-10-28T15:32:44.939Z,100600.72
2022-10-28T15:35:47.031Z,100589.31
2022-10-28T15:38:54.750Z,100589.44
2022-10-28T15:41:41.421Z,100592.19
2022-10-28T15:44:43.516Z,100588.84
2022-10-28T15:47:50.616Z,100588.06
2022-10-28T15:50:37.341Z,100579.28
2022-10-28T15:53:29.777Z,100579.44
2022-10-28T15:56:43.840Z,100560.81
2022-10-28T15:59:44.675Z,100578.03
2022-10-28T16:03:00.371Z,100567.75
2022-10-28T16:05:53.457Z,100574.91
2022-10-28T16:08:49.810Z,100575.06
2022-10-28T16:11:39.458Z,100575.13
2022-10-28T16:15:00.474Z,100565.69
2022-10-28T16:17:55.309Z,100563.03
2022-10-28T16:20:49.839Z,100564.91
2022-10-28T16:23:42.511Z,100558.78
2022-10-28T16:26:32.468Z,100558.88
2022-10-28T16:29:19.186Z,100560.75
2022-10-28T16:32:09.758Z,100560.84
2022-10-28T16:34:56.481Z,100479.22
2022-10-28T16:37:50.749Z,100561.28
2022-10-28T16:40:55.822Z,100567.41
2022-10-28T16:43:45.171Z,100577.25
2022-10-28T16:46:33.585Z,100574.69
2022-10-28T16:49:20.398Z,100573.97
2022-10-28T16:52:07.176Z,100483.66
2022-10-28T16:54:53.881Z,100574.03
2022-10-28T16:57:41.812Z,100572.38
2022-10-28T17:00:32.780Z,100561.16
2022-10-28T17:03:20.353Z,100571.69
2022-10-28T17:06:07.236Z,100571.09
2022-10-28T17:09:09.256Z,100579.63
2022-10-28T17:11:55.984Z,100574.53
2022-10-28T17:14:42.728Z,100575.31
2022-10-28T17:17:30.103Z,100586.00
2022-10-28T17:20:16.849Z,100586.13
2022-10-28T17:23:03.586Z,100584.41
2022-10-28T17:25:50.374Z,100584.56
2022-10-28T17:28:37.191Z,100578.47
2022-10-28T17:31:25.841Z,100576.84
2022-10-28T17:34:14.222Z,100574.25
2022-10-28T17:37:00.971Z,100564.09
2022-10-28T17:39:47.814Z,100484.13
2022-10-28T17:42:34.547Z,100566.53
2022-10-28T17:45:22.175Z,100442.19
2022-10-28T17:48:09.007Z,100547.66
2022-10-28T17:50:55.724Z,100547.66
2022-10-28T17:53:42.427Z,100551.19
2022-10-28T17:56:29.844Z,100560.84
2022-10-28T17:59:16.632Z,100550.31
2022-10-28T18:02:03.444Z,100466.16
2022-10-28T18:04:50.328Z,100526.09
2022-10-28T18:07:37.042Z,100459.25
2022-10-28T18:10:23.966Z,100538.31
2022-10-28T18:13:10.742Z,100528.00
2022-10-28T18:15:57.459Z,100516.75
2022-10-28T18:18:47.184Z,100533.28
2022-10-28T18:21:34.489Z,100533.44
2022-10-28T18:24:24.963Z,100536.16
2022-10-28T18:27:14.479Z,100526.53
2022-10-28T18:30:01.247Z,100515.50
2022-10-28T18:32:47.951Z,100519.97
2022-10-28T18:35:34.737Z,100527.75
2022-10-28T18:38:21.491Z,100440.31
2022-10-28T18:41:08.207Z,100531.59
2022-10-28T18:43:54.922Z,100429.34
2022-10-28T18:46:42.050Z,100503.22
2022-10-28T18:49:28.750Z,100520.66
2022-10-28T18:52:15.544Z,100520.00
2022-10-28T18:55:02.259Z,100513.13
2022-10-28T18:57:49.007Z,100509.94
2022-10-28T19:00:35.851Z,100505.56
2022-10-28T19:03:22.551Z,100488.72
2022-10-28T19:06:09.705Z,100382.44
2022-10-28T19:08:57.396Z,100512.88
2022-10-28T19:11:45.732Z,100518.31
2022-10-28T19:14:32.456Z,100502.84
2022-10-28T19:17:19.146Z,100511.53
2022-10-28T19:20:05.869Z,100509.03
2022-10-28T19:22:53.102Z,100409.38
2022-10-28T19:25:40.170Z,100499.06
2022-10-28T19:28:26.864Z,100367.78
2022-10-28T19:31:24.665Z,100503.53
2022-10-28T19:34:12.391Z,100507.13
2022-10-28T19:36:59.107Z,100508.13
2022-10-28T19:39:45.798Z,100519.66
2022-10-28T19:42:32.534Z,100507.59
2022-10-28T19:45:19.239Z,100513.75
2022-10-28T19:48:05.955Z,100518.28
2022-10-28T19:50:52.715Z,100525.41
2022-10-28T19:53:39.426Z,100508.13
2022-10-28T19:56:26.446Z,100367.16
2022-10-28T19:59:18.443Z,100518.47
2022-10-28T20:02:05.226Z,100512.34
2022-10-28T20:04:52.019Z,100502.72
2022-10-28T20:07:38.793Z,100356.84
2022-10-28T20:10:25.887Z,100509.84
2022-10-28T20:13:12.587Z,100516.00
2022-10-28T20:15:59.296Z,100521.34
2022-10-28T20:18:46.079Z,100525.78
2022-10-28T20:21:38.176Z,100517.97
2022-10-28T20:24:26.816Z,100347.59
2022-10-28T20:27:13.526Z,100514.53
2022-10-28T20:30:00.307Z,100505.75
2022-10-28T20:32:48.813Z,100507.53
2022-10-28T20:35:38.601Z,100515.44
2022-10-28T20:38:25.380Z,100504.06
2022-10-28T20:41:14.863Z,100504.06
2022-10-28T20:44:01.908Z,100436.09
2022-10-28T20:46:48.871Z,100443.81
2022-10-28T20:49:35.722Z,100493.63
2022-10-28T20:55:10.736Z,100493.69
2022-10-28T20:57:57.593Z,100485.00
2022-10-28T21:00:44.296Z,100477.91
2022-10-28T21:03:31.006Z,100468.25
2022-10-28T21:06:17.827Z,100465.69
2022-10-28T21:09:04.906Z,100462.34
2022-10-28T21:11:51.782Z,100463.09
2022-10-28T21:14:38.540Z,100460.47
2022-10-28T21:17:25.249Z,100449.94
2022-10-28T21:20:11.944Z,100442.09
2022-10-28T21:22:58.677Z,100453.53
2022-10-28T21:25:25.543Z,100451.00
2022-10-28T21:28:12.250Z,100432.56
2022-10-28T21:30:58.987Z,100423.84
2022-10-28T21:33:45.703Z,100411.56
2022-10-28T21:36:34.969Z,100400.19
2022-10-28T21:39:21.651Z,100387.88
2022-10-28T21:42:08.383Z,100388.00
2022-10-28T21:44:55.068Z,100409.28
2022-10-28T21:47:41.810Z,100403.41
2022-10-28T21:50:28.675Z,100400.09
2022-10-28T21:53:15.382Z,100385.25
2022-10-28T21:56:02.172Z,100381.81
2022-10-28T21:58:31.406Z,100374.81
2022-10-28T22:01:23.238Z,100381.88
2022-10-28T22:04:11.879Z,100388.91
2022-10-28T22:06:58.627Z,100394.28
2022-10-28T22:09:45.313Z,100385.56
2022-10-28T22:12:32.042Z,100387.34
2022-10-28T22:15:18.740Z,100384.81
2022-10-28T22:18:05.479Z,100376.09
2022-10-28T22:20:52.382Z,100371.13
2022-10-28T22:23:39.126Z,100362.22
2022-10-28T22:26:28.694Z,100358.75
2022-10-28T22:29:16.446Z,100355.28
2022-10-28T22:32:03.182Z,100355.34
2022-10-28T22:34:49.886Z,100340.44
2022-10-28T22:37:36.703Z,100348.44
2022-10-28T22:40:23.546Z,100288.97
2022-10-28T22:43:10.324Z,100325.63
2022-10-28T22:45:57.040Z,100330.97
2022-10-28T22:48:43.844Z,100351.25
2022-10-28T22:51:30.898Z,100333.81
2022-10-28T22:54:17.774Z,100316.59
2022-10-28T22:57:07.336Z,100340.75
2022-10-28T22:59:54.101Z,100348.81
2022-10-28T23:02:40.910Z,100343.47
2022-10-28T23:05:28.114Z,100340.81
2022-10-28T23:08:14.878Z,100303.56
2022-10-28T23:11:01.899Z,100301.41
2022-10-28T23:13:48.660Z,100310.84
2022-10-28T23:16:36.266Z,100326.63
2022-10-28T23:19:23.018Z,100330.97
2022-10-28T23:22:09.731Z,100318.78
2022-10-28T23:24:56.477Z,100304.50
2022-10-28T23:27:43.248Z,100264.84
2022-10-28T23:30:32.361Z,100219.88
2022-10-28T23:33:19.103Z,100245.44
2022-10-28T23:36:13.548Z,100225.75
2022-10-28T23:39:01.228Z,100216.31
2022-10-28T23:41:47.910Z,100211.75
2022-10-28T23:44:35.450Z,100218.78
2022-10-28T23:47:22.159Z,100197.91
2022-10-28T23:50:08.916Z,100225.56
2022-10-28T23:52:55.941Z,100221.06
2022-10-28T23:55:42.775Z,100208.72
2022-10-28T23:58:29.579Z,100203.38
